sensor_id;sensor_type;location;lat;lon;timestamp;pressure;altitude;pressure_sealevel;temperature;humidity
62976;BME280;49071;0.000;0.000;2023-03-13T06:29:36;99546.31;;;17.51;34.90
62976;BME280;49071;0.000;0.000;2023-03-13T06:32:37;99542.97;;;17.49;34.93
62976;BME280;49071;0.000;0.000;2023-03-13T06:35:41;99535.19;;;17.47;34.75
62976;BME280;49071;0.000;0.000;2023-03-13T06:38:41;99534.19;;;17.35;35.38
62976;BME280;49071;0.000;0.000;2023-03-13T06:41:41;99533.41;;;17.33;35.03
62976;BME280;49071;0.000;0.000;2023-03-13T06:44:42;99529.13;;;17.32;35.33
62976;BME280;49071;0.000;0.000;2023-03-13T06:47:42;99531.38;;;17.38;35.14
62976;BME280;49071;0.000;0.000;2023-03-13T06:50:42;99525.34;;;17.51;35.01
62976;BME280;49071;0.000;0.000;2023-03-13T06:53:42;99524.19;;;17.69;34.86
62976;BME280;49071;0.000;0.000;2023-03-13T06:56:42;99511.81;;;17.85;34.87
62976;BME280;49071;0.000;0.000;2023-03-13T06:59:43;99511.84;;;17.98;34.47
62976;BME280;49071;0.000;0.000;2023-03-13T07:02:43;99514.81;;;18.06;34.40
62976;BME280;49071;0.000;0.000;2023-03-13T07:05:43;99508.75;;;18.18;34.36
62976;BME280;49071;0.000;0.000;2023-03-13T07:08:43;99499.31;;;18.29;34.25
62976;BME280;49071;0.000;0.000;2023-03-13T07:11:43;99498.06;;;18.34;34.54
62976;BME280;49071;0.000;0.000;2023-03-13T07:14:44;99490.41;;;18.31;34.51
62976;BME280;49071;0.000;0.000;2023-03-13T07:17:45;99487.06;;;18.29;34.53
62976;BME280;49071;0.000;0.000;2023-03-13T07:20:50;99476.53;;;18.16;34.90
62976;BME280;49071;0.000;0.000;2023-03-13T07:23:51;99470.13;;;18.21;34.92
62976;BME280;49071;0.000;0.000;2023-03-13T07:26:51;99460.97;;;18.13;35.01
62976;BME280;49071;0.000;0.000;2023-03-13T07:29:51;99456.47;;;18.03;35.20
62976;BME280;49071;0.000;0.000;2023-03-13T07:32:51;99453.84;;;18.03;35.59
62976;BME280;49071;0.000;0.000;2023-03-13T07:35:51;99450.56;;;17.99;35.35
62976;BME280;49071;0.000;0.000;2023-03-13T07:38:52;99448.16;;;17.96;35.49
62976;BME280;49071;0.000;0.000;2023-03-13T07:41:52;99437.22;;;17.89;35.43
62976;BME280;49071;0.000;0.000;2023-03-13T07:44:52;99439.00;;;17.89;35.57
62976;BME280;49071;0.000;0.000;2023-03-13T07:47:52;99428.41;;;17.90;35.32
62976;BME280;49071;0.000;0.000;2023-03-13T07:50:53;99422.00;;;17.94;35.20
62976;BME280;49071;0.000;0.000;2023-03-13T07:53:53;99420.56;;;18.03;35.42
62976;BME280;49071;0.000;0.000;2023-03-13T07:56:53;99409.03;;;18.06;34.94
62976;BME280;49071;0.000;0.000;2023-03-13T07:59:54;99406.81;;;18.12;35.07
62976;BME280;49071;0.000;0.000;2023-03-13T08:02:54;99399.78;;;18.26;34.80
62976;BME280;49071;0.000;0.000;2023-03-13T08:06:04;99392.44;;;18.31;34.74
62976;BME280;49071;0.000;0.000;2023-03-13T08:09:05;99398.53;;;18.44;34.62
62976;BME280;49071;0.000;0.000;2023-03-13T08:12:05;99391.69;;;18.54;34.86
62976;BME280;49071;0.000;0.000;2023-03-13T08:15:05;99387.38;;;18.66;34.45
62976;BME280;49071;0.000;0.000;2023-03-13T08:18:06;99381.41;;;18.77;34.46
62976;BME280;49071;0.000;0.000;2023-03-13T08:21:07;99374.34;;;18.90;33.98
62976;BME280;49071;0.000;0.000;2023-03-13T08:24:09;99376.72;;;18.93;34.06
62976;BME280;49071;0.000;0.000;2023-03-13T08:27:10;99370.00;;;19.02;33.97
62976;BME280;49071;0.000;0.000;2023-03-13T08:30:10;99363.06;;;19.01;34.19
62976;BME280;49071;0.000;0.000;2023-03-13T08:33:10;99353.38;;;19.01;33.99
62976;BME280;49071;0.000;0.000;2023-03-13T08:39:18;99358.09;;;19.09;33.60
62976;BME280;49071;0.000;0.000;2023-03-13T08:42:18;99368.91;;;19.17;33.79
62976;BME280;49071;0.000;0.000;2023-03-13T08:45:18;99356.81;;;19.15;33.77
62976;BME280;49071;0.000;0.000;2023-03-13T08:48:19;99349.50;;;19.07;33.97
62976;BME280;49071;0.000;0.000;2023-03-13T08:51:20;99348.53;;;19.08;33.94
62976;BME280;49071;0.000;0.000;2023-03-13T08:54:21;99344.28;;;18.94;34.20
62976;BME280;49071;0.000;0.000;2023-03-13T08:57:21;99340.84;;;18.81;33.90
62976;BME280;49071;0.000;0.000;2023-03-13T09:00:21;99338.75;;;18.73;34.19
62976;BME280;49071;0.000;0.000;2023-03-13T09:03:22;99333.16;;;18.65;34.14
62976;BME280;49071;0.000;0.000;2023-03-13T09:06:23;99334.34;;;18.61;34.33
62976;BME280;49071;0.000;0.000;2023-03-13T09:09:23;99330.25;;;18.57;34.54
62976;BME280;49071;0.000;0.000;2023-03-13T09:12:23;99323.44;;;18.54;34.34
62976;BME280;49071;0.000;0.000;2023-03-13T09:15:23;99327.72;;;18.55;34.54
62976;BME280;49071;0.000;0.000;2023-03-13T09:18:24;99327.72;;;18.55;34.50
62976;BME280;49071;0.000;0.000;2023-03-13T09:21:32;99328.88;;;18.64;34.59
62976;BME280;49071;0.000;0.000;2023-03-13T09:24:32;99320.03;;;18.65;34.45
62976;BME280;49071;0.000;0.000;2023-03-13T09:27:32;99308.28;;;18.71;34.23
62976;BME280;49071;0.000;0.000;2023-03-13T09:30:32;99306.06;;;18.77;34.47
62976;BME280;49071;0.000;0.000;2023-03-13T09:33:33;99309.09;;;18.84;34.27
62976;BME280;49071;0.000;0.000;2023-03-13T09:36:33;99307.47;;;18.94;34.11
62976;BME280;49071;0.000;0.000;2023-03-13T09:39:33;99306.09;;;19.01;33.79
62976;BME280;49071;0.000;0.000;2023-03-13T09:42:34;99295.13;;;19.07;33.96
62976;BME280;49071;0.000;0.000;2023-03-13T09:45:38;99294.56;;;19.15;33.84
62976;BME280;49071;0.000;0.000;2023-03-13T09:48:42;99277.84;;;19.16;33.67
62976;BME280;49071;0.000;0.000;2023-03-13T09:51:45;99282.59;;;19.11;33.73
62976;BME280;49071;0.000;0.000;2023-03-13T09:58:07;99288.03;;;18.97;33.90
62976;BME280;49071;0.000;0.000;2023-03-13T10:01:09;99285.09;;;18.88;34.00
62976;BME280;49071;0.000;0.000;2023-03-13T10:04:13;99279.69;;;18.79;34.35
62976;BME280;49071;0.000;0.000;2023-03-13T10:07:23;99287.16;;;18.72;34.10
62976;BME280;49071;0.000;0.000;2023-03-13T10:10:27;99286.03;;;18.63;34.64
62976;BME280;49071;0.000;0.000;2023-03-13T10:16:43;99277.22;;;18.52;34.66
62976;BME280;49071;0.000;0.000;2023-03-13T10:19:44;99275.63;;;18.49;34.67
62976;BME280;49071;0.000;0.000;2023-03-13T10:22:47;99279.84;;;18.52;34.54
62976;BME280;49071;0.000;0.000;2023-03-13T10:25:51;99273.66;;;18.53;34.88
62976;BME280;49071;0.000;0.000;2023-03-13T10:28:51;99276.28;;;18.53;34.64
62976;BME280;49071;0.000;0.000;2023-03-13T10:31:56;99274.16;;;18.58;34.53
62976;BME280;49071;0.000;0.000;2023-03-13T10:35:00;99281.81;;;18.61;34.72
62976;BME280;49071;0.000;0.000;2023-03-13T10:38:08;99270.34;;;18.62;34.74
62976;BME280;49071;0.000;0.000;2023-03-13T10:41:28;99267.19;;;18.70;34.51
62976;BME280;49071;0.000;0.000;2023-03-13T10:44:31;99270.13;;;18.78;34.27
62976;BME280;49071;0.000;0.000;2023-03-13T10:47:32;99267.69;;;18.87;34.22
62976;BME280;49071;0.000;0.000;2023-03-13T10:50:33;99265.31;;;18.96;34.42
62976;BME280;49071;0.000;0.000;2023-03-13T10:53:35;99261.81;;;19.08;34.00
62976;BME280;49071;0.000;0.000;2023-03-13T10:56:35;99241.88;;;19.17;34.21
62976;BME280;49071;0.000;0.000;2023-03-13T10:59:42;99231.34;;;19.17;34.10
62976;BME280;49071;0.000;0.000;2023-03-13T11:02:43;99240.81;;;19.19;34.17
62976;BME280;49071;0.000;0.000;2023-03-13T11:05:44;99222.03;;;19.13;34.00
62976;BME280;49071;0.000;0.000;2023-03-13T11:12:13;99212.19;;;19.03;34.48
62976;BME280;49071;0.000;0.000;2023-03-13T11:15:38;99193.44;;;18.97;34.31
62976;BME280;49071;0.000;0.000;2023-03-13T11:18:43;99199.25;;;18.89;34.45
62976;BME280;49071;0.000;0.000;2023-03-13T11:34:28;99193.50;;;18.60;34.70
62976;BME280;49071;0.000;0.000;2023-03-13T11:37:27;99186.88;;;18.54;34.77
62976;BME280;49071;0.000;0.000;2023-03-13T11:40:39;99178.50;;;18.49;34.79
62976;BME280;49071;0.000;0.000;2023-03-13T11:43:47;99175.25;;;18.46;35.01
62976;BME280;49071;0.000;0.000;2023-03-13T11:59:25;99156.03;;;18.21;35.26
62976;BME280;49071;0.000;0.000;2023-03-13T12:03:10;99154.16;;;18.23;35.48
62976;BME280;49071;0.000;0.000;2023-03-13T12:05:52;99149.59;;;18.25;35.08
62976;BME280;49071;0.000;0.000;2023-03-13T12:08:54;99149.28;;;18.30;35.16
62976;BME280;49071;0.000;0.000;2023-03-13T12:12:00;99145.38;;;18.35;35.08
62976;BME280;49071;0.000;0.000;2023-03-13T12:15:07;99141.34;;;18.42;35.05
62976;BME280;49071;0.000;0.000;2023-03-13T12:18:24;99157.38;;;18.51;35.33
62976;BME280;49071;0.000;0.000;2023-03-13T12:21:29;99135.59;;;18.61;35.03
62976;BME280;49071;0.000;0.000;2023-03-13T12:24:32;99136.19;;;18.65;34.90
62976;BME280;49071;0.000;0.000;2023-03-13T12:27:41;99130.13;;;18.64;34.64
62976;BME280;49071;0.000;0.000;2023-03-13T12:30:45;99141.69;;;18.62;34.96
62976;BME280;49071;0.000;0.000;2023-03-13T12:36:52;99133.53;;;18.54;34.90
62976;BME280;49071;0.000;0.000;2023-03-13T12:40:38;99125.75;;;18.52;34.91
62976;BME280;49071;0.000;0.000;2023-03-13T12:43:20;99123.25;;;18.51;34.68
62976;BME280;49071;0.000;0.000;2023-03-13T12:46:28;99121.59;;;18.50;34.90
62976;BME280;49071;0.000;0.000;2023-03-13T12:52:44;99122.13;;;18.42;35.09
62976;BME280;49071;0.000;0.000;2023-03-13T12:59:03;99123.44;;;18.36;35.06
62976;BME280;49071;0.000;0.000;2023-03-13T13:02:38;99121.97;;;18.32;34.89
62976;BME280;49071;0.000;0.000;2023-03-13T13:05:32;99121.47;;;18.27;35.20
62976;BME280;49071;0.000;0.000;2023-03-13T13:08:39;99102.84;;;18.19;35.30
62976;BME280;49071;0.000;0.000;2023-03-13T13:11:42;99103.97;;;18.15;35.37
62976;BME280;49071;0.000;0.000;2023-03-13T13:14:54;99097.19;;;18.12;35.51
62976;BME280;49071;0.000;0.000;2023-03-13T13:18:00;99098.72;;;18.15;35.62
62976;BME280;49071;0.000;0.000;2023-03-13T13:24:37;99083.28;;;18.23;35.33
62976;BME280;49071;0.000;0.000;2023-03-13T13:30:30;99078.47;;;18.41;35.38
62976;BME280;49071;0.000;0.000;2023-03-13T13:33:33;99078.84;;;18.48;34.91
62976;BME280;49071;0.000;0.000;2023-03-13T13:36:39;99070.53;;;18.54;35.10
62976;BME280;49071;0.000;0.000;2023-03-13T13:39:44;99065.19;;;18.67;34.97
62976;BME280;49071;0.000;0.000;2023-03-13T13:42:53;99078.47;;;18.76;34.65
62976;BME280;49071;0.000;0.000;2023-03-13T13:45:56;99069.44;;;18.92;34.74
62976;BME280;49071;0.000;0.000;2023-03-13T13:58:24;99063.25;;;18.93;34.31
62976;BME280;49071;0.000;0.000;2023-03-13T14:01:27;99057.50;;;18.87;34.47
62976;BME280;49071;0.000;0.000;2023-03-13T14:04:28;99055.94;;;18.85;34.83
62976;BME280;49071;0.000;0.000;2023-03-13T14:10:38;99052.22;;;18.76;34.76
62976;BME280;49071;0.000;0.000;2023-03-13T14:13:39;99042.06;;;18.72;34.76
62976;BME280;49071;0.000;0.000;2023-03-13T14:16:42;99040.81;;;18.64;34.64
62976;BME280;49071;0.000;0.000;2023-03-13T14:19:42;99045.84;;;18.56;34.93
62976;BME280;49071;0.000;0.000;2023-03-13T14:22:44;99047.94;;;18.51;34.82
62976;BME280;49071;0.000;0.000;2023-03-13T14:25:45;99037.56;;;18.50;34.81
62976;BME280;49071;0.000;0.000;2023-03-13T14:28:59;99042.09;;;18.48;34.99
62976;BME280;49071;0.000;0.000;2023-03-13T14:32:01;99048.19;;;18.48;35.08
62976;BME280;49071;0.000;0.000;2023-03-13T14:35:05;99041.63;;;18.54;35.15
62976;BME280;49071;0.000;0.000;2023-03-13T14:38:06;99051.69;;;18.60;35.12
62976;BME280;49071;0.000;0.000;2023-03-13T14:41:19;99039.78;;;18.67;34.90
62976;BME280;49071;0.000;0.000;2023-03-13T14:44:26;99031.19;;;18.76;34.96
62976;BME280;49071;0.000;0.000;2023-03-13T14:47:28;99028.84;;;18.84;34.68
62976;BME280;49071;0.000;0.000;2023-03-13T14:50:29;99031.72;;;18.93;34.87
62976;BME280;49071;0.000;0.000;2023-03-13T14:53:29;99025.63;;;19.03;34.67
62976;BME280;49071;0.000;0.000;2023-03-13T14:56:34;99028.16;;;19.05;34.43
62976;BME280;49071;0.000;0.000;2023-03-13T14:59:34;99019.78;;;19.00;34.64
62976;BME280;49071;0.000;0.000;2023-03-13T15:02:34;99018.09;;;18.99;34.53
62976;BME280;49071;0.000;0.000;2023-03-13T15:05:35;99020.88;;;18.97;34.71
62976;BME280;49071;0.000;0.000;2023-03-13T15:08:36;99009.03;;;18.92;34.79
62976;BME280;49071;0.000;0.000;2023-03-13T15:14:52;99003.88;;;18.79;35.00
62976;BME280;49071;0.000;0.000;2023-03-13T15:17:52;99001.47;;;18.76;35.13
62976;BME280;49071;0.000;0.000;2023-03-13T15:20:56;98988.81;;;18.70;35.06
62976;BME280;49071;0.000;0.000;2023-03-13T15:23:58;99001.44;;;18.64;34.93
62976;BME280;49071;0.000;0.000;2023-03-13T15:26:59;98996.41;;;18.61;35.05
62976;BME280;49071;0.000;0.000;2023-03-13T15:29:59;98995.94;;;18.56;35.22
62976;BME280;49071;0.000;0.000;2023-03-13T15:32:59;98982.31;;;18.51;35.36
62976;BME280;49071;0.000;0.000;2023-03-13T15:35:59;98975.72;;;18.46;35.32
62976;BME280;49071;0.000;0.000;2023-03-13T15:38:59;98980.59;;;18.39;35.54
62976;BME280;49071;0.000;0.000;2023-03-13T15:42:00;98975.22;;;18.29;35.79
62976;BME280;49071;0.000;0.000;2023-03-13T15:45:01;98966.38;;;18.19;35.99
62976;BME280;49071;0.000;0.000;2023-03-13T15:48:01;98976.22;;;18.15;36.33
62976;BME280;49071;0.000;0.000;2023-03-13T15:51:01;98971.50;;;18.21;36.49
62976;BME280;49071;0.000;0.000;2023-03-13T15:54:03;98965.66;;;18.28;36.79
62976;BME280;49071;0.000;0.000;2023-03-13T15:57:03;98948.50;;;18.35;36.56
62976;BME280;49071;0.000;0.000;2023-03-13T16:00:03;98949.69;;;18.42;36.50
62976;BME280;49071;0.000;0.000;2023-03-13T16:03:14;98944.72;;;18.51;36.51
62976;BME280;49071;0.000;0.000;2023-03-13T16:06:15;98944.72;;;18.62;36.35
62976;BME280;49071;0.000;0.000;2023-03-13T16:09:16;98951.06;;;18.71;36.39
62976;BME280;49071;0.000;0.000;2023-03-13T16:12:16;98939.78;;;18.81;36.12
62976;BME280;49071;0.000;0.000;2023-03-13T16:15:16;98937.50;;;18.88;36.21
62976;BME280;49071;0.000;0.000;2023-03-13T16:18:20;98934.50;;;18.93;35.83
62976;BME280;49071;0.000;0.000;2023-03-13T16:21:22;98930.34;;;18.90;36.08
62976;BME280;49071;0.000;0.000;2023-03-13T16:24:23;98936.28;;;18.92;36.10
62976;BME280;49071;0.000;0.000;2023-03-13T16:27:23;98933.31;;;18.85;36.25
62976;BME280;49071;0.000;0.000;2023-03-13T16:30:27;98929.03;;;18.84;36.19
62976;BME280;49071;0.000;0.000;2023-03-13T16:33:27;98927.22;;;18.85;36.26
62976;BME280;49071;0.000;0.000;2023-03-13T16:36:28;98932.34;;;18.75;36.53
62976;BME280;49071;0.000;0.000;2023-03-13T16:39:30;98926.59;;;18.70;36.63
62976;BME280;49071;0.000;0.000;2023-03-13T16:42:30;98912.66;;;18.70;36.68
62976;BME280;49071;0.000;0.000;2023-03-13T16:45:30;98907.97;;;18.62;36.53
62976;BME280;49071;0.000;0.000;2023-03-13T16:48:30;98911.66;;;18.59;36.75
62976;BME280;49071;0.000;0.000;2023-03-13T16:51:31;98906.19;;;18.51;37.16
62976;BME280;49071;0.000;0.000;2023-03-13T16:54:31;98907.00;;;18.52;37.29
62976;BME280;49071;0.000;0.000;2023-03-13T16:57:31;98898.53;;;18.48;37.00
62976;BME280;49071;0.000;0.000;2023-03-13T17:00:31;98892.31;;;18.38;37.21
62976;BME280;49071;0.000;0.000;2023-03-13T17:03:31;98876.81;;;18.35;37.16
62976;BME280;49071;0.000;0.000;2023-03-13T17:06:33;98873.56;;;18.31;37.31
62976;BME280;49071;0.000;0.000;2023-03-13T17:09:33;98877.63;;;18.24;37.52
62976;BME280;49071;0.000;0.000;2023-03-13T17:12:34;98884.28;;;18.17;37.47
62976;BME280;49071;0.000;0.000;2023-03-13T17:15:34;98881.53;;;18.18;37.71
62976;BME280;49071;0.000;0.000;2023-03-13T17:18:34;98866.66;;;18.19;37.54
62976;BME280;49071;0.000;0.000;2023-03-13T17:21:34;98856.63;;;18.24;37.61
62976;BME280;49071;0.000;0.000;2023-03-13T17:24:35;98861.03;;;18.35;37.48
62976;BME280;49071;0.000;0.000;2023-03-13T17:27:35;98855.81;;;18.46;37.72
62976;BME280;49071;0.000;0.000;2023-03-13T17:30:36;98852.38;;;18.57;37.46
62976;BME280;49071;0.000;0.000;2023-03-13T17:33:36;98841.75;;;18.70;37.28
62976;BME280;49071;0.000;0.000;2023-03-13T17:36:36;98857.63;;;18.79;36.97
62976;BME280;49071;0.000;0.000;2023-03-13T17:39:36;98849.84;;;18.89;37.09
62976;BME280;49071;0.000;0.000;2023-03-13T17:42:37;98860.59;;;18.97;36.82
62976;BME280;49071;0.000;0.000;2023-03-13T17:45:37;98866.53;;;18.99;36.84
62976;BME280;49071;0.000;0.000;2023-03-13T17:48:38;98878.84;;;18.99;36.83
62976;BME280;49071;0.000;0.000;2023-03-13T17:51:38;98866.91;;;19.06;36.77
62976;BME280;49071;0.000;0.000;2023-03-13T17:54:41;98859.84;;;19.06;37.16
62976;BME280;49071;0.000;0.000;2023-03-13T17:57:42;98854.72;;;19.05;36.83
62976;BME280;49071;0.000;0.000;2023-03-13T18:00:42;98856.63;;;19.03;37.11
62976;BME280;49071;0.000;0.000;2023-03-13T18:03:46;98856.88;;;19.00;37.12
62976;BME280;49071;0.000;0.000;2023-03-13T18:06:47;98857.63;;;18.91;37.31
62976;BME280;49071;0.000;0.000;2023-03-13T18:09:48;98860.59;;;18.86;37.44
62976;BME280;49071;0.000;0.000;2023-03-13T18:12:49;98858.22;;;18.83;37.37
62976;BME280;49071;0.000;0.000;2023-03-13T18:15:50;98853.81;;;18.83;37.32
62976;BME280;49071;0.000;0.000;2023-03-13T18:18:50;98862.41;;;18.74;37.53
62976;BME280;49071;0.000;0.000;2023-03-13T18:21:52;98859.50;;;18.66;37.80
62976;BME280;49071;0.000;0.000;2023-03-13T18:24:52;98856.88;;;18.66;37.52
62976;BME280;49071;0.000;0.000;2023-03-13T18:27:52;98844.59;;;18.67;38.01
62976;BME280;49071;0.000;0.000;2023-03-13T18:30:52;98848.16;;;18.65;37.90
62976;BME280;49071;0.000;0.000;2023-03-13T18:33:53;98853.44;;;18.54;38.11
62976;BME280;49071;0.000;0.000;2023-03-13T18:36:54;98863.19;;;18.52;38.07
62976;BME280;49071;0.000;0.000;2023-03-13T18:39:54;98866.19;;;18.48;38.11
62976;BME280;49071;0.000;0.000;2023-03-13T18:42:55;98857.81;;;18.42;38.41
62976;BME280;49071;0.000;0.000;2023-03-13T18:45:55;98849.34;;;18.39;38.40
62976;BME280;49071;0.000;0.000;2023-03-13T18:48:55;98849.13;;;18.31;38.61
62976;BME280;49071;0.000;0.000;2023-03-13T18:51:56;98841.72;;;18.25;38.43
62976;BME280;49071;0.000;0.000;2023-03-13T18:54:56;98816.81;;;18.19;38.74
62976;BME280;49071;0.000;0.000;2023-03-13T18:57:56;98819.53;;;18.17;39.03
62976;BME280;49071;0.000;0.000;2023-03-13T19:00:56;98818.22;;;18.23;39.02
62976;BME280;49071;0.000;0.000;2023-03-13T19:03:57;98818.22;;;18.23;38.91
62976;BME280;49071;0.000;0.000;2023-03-13T19:06:57;98812.50;;;18.29;39.01
62976;BME280;49071;0.000;0.000;2023-03-13T19:09:57;98810.13;;;18.37;38.61
62976;BME280;49071;0.000;0.000;2023-03-13T19:12:57;98820.13;;;18.44;38.80
62976;BME280;49071;0.000;0.000;2023-03-13T19:15:58;98803.91;;;18.50;38.84
62976;BME280;49071;0.000;0.000;2023-03-13T19:18:58;98795.53;;;18.56;38.45
62976;BME280;49071;0.000;0.000;2023-03-13T19:21:58;98780.47;;;18.69;38.67
62976;BME280;49071;0.000;0.000;2023-03-13T19:24:59;98780.25;;;18.72;38.55
62976;BME280;49071;0.000;0.000;2023-03-13T19:27:59;98768.44;;;18.78;38.38
62976;BME280;49071;0.000;0.000;2023-03-13T19:30:59;98778.94;;;18.78;38.26
62976;BME280;49071;0.000;0.000;2023-03-13T19:34:00;98775.25;;;18.80;38.46
62976;BME280;49071;0.000;0.000;2023-03-13T19:37:00;98776.78;;;18.83;38.40
62976;BME280;49071;0.000;0.000;2023-03-13T19:40:00;98781.94;;;18.84;38.38
62976;BME280;49071;0.000;0.000;2023-03-13T19:43:00;98768.66;;;18.86;38.27
62976;BME280;49071;0.000;0.000;2023-03-13T19:46:00;98770.44;;;18.85;38.47
62976;BME280;49071;0.000;0.000;2023-03-13T19:49:12;98773.47;;;18.81;38.50
62976;BME280;49071;0.000;0.000;2023-03-13T19:52:13;98763.19;;;18.78;38.58
62976;BME280;49071;0.000;0.000;2023-03-13T19:55:13;98767.13;;;18.72;38.58
62976;BME280;49071;0.000;0.000;2023-03-13T19:58:13;98765.81;;;18.67;38.71
62976;BME280;49071;0.000;0.000;2023-03-13T20:01:15;98759.97;;;18.63;38.50
62976;BME280;49071;0.000;0.000;2023-03-13T20:04:15;98758.78;;;18.56;38.74
62976;BME280;49071;0.000;0.000;2023-03-13T20:07:15;98759.53;;;18.47;38.65
62976;BME280;49071;0.000;0.000;2023-03-13T20:10:15;98766.44;;;18.48;38.75
62976;BME280;49071;0.000;0.000;2023-03-13T20:13:16;98770.84;;;18.47;38.77
62976;BME280;49071;0.000;0.000;2023-03-13T20:16:16;98762.38;;;18.44;38.78
62976;BME280;49071;0.000;0.000;2023-03-13T20:19:16;98766.47;;;18.36;39.35
62976;BME280;49071;0.000;0.000;2023-03-13T20:22:17;98774.44;;;18.35;39.05
62976;BME280;49071;0.000;0.000;2023-03-13T20:25:17;98773.84;;;18.31;39.30
62976;BME280;49071;0.000;0.000;2023-03-13T20:28:17;98761.78;;;18.29;39.08
62976;BME280;49071;0.000;0.000;2023-03-13T20:31:19;98749.03;;;18.24;39.62
62976;BME280;49071;0.000;0.000;2023-03-13T20:34:19;98750.22;;;18.20;39.49
62976;BME280;49071;0.000;0.000;2023-03-13T20:37:20;98744.41;;;18.16;39.56
62976;BME280;49071;0.000;0.000;2023-03-13T20:40:20;98743.56;;;18.16;39.89
62976;BME280;49071;0.000;0.000;2023-03-13T20:43:20;98734.13;;;18.13;39.56
62976;BME280;49071;0.000;0.000;2023-03-13T20:46:20;98733.41;;;18.11;39.76
62976;BME280;49071;0.000;0.000;2023-03-13T20:49:21;98711.81;;;18.08;39.73
62976;BME280;49071;0.000;0.000;2023-03-13T20:52:21;98714.00;;;18.03;40.24
62976;BME280;49071;0.000;0.000;2023-03-13T20:55:21;98703.13;;;17.96;39.80
